Guymon Municipal Airport Guymon US
ICAO: KGUY
IATA: GUY
Category: Medium
Scheduled Services: No

Elevation: 3123 ft
TransAlt. 18000 ft.

Airport Communications:
ASOS:119.925
KANSAS CITY CNTR:134
CTAF/UNICOM:122.7

KGUY Zoom In..

Runways:

(A) RW 18 length 5904 ft width 100 ft
---- / hdg 177

(B) RW 36 length 5904 ft width 100 ft
---- / hdg 357

Location; KGUY
Day. 04 / Time. 13.53 Zulu
* Altimeter: 30.14
* Temperature: 00° c. 32°f.
* Wind from: 140° Speed 05 kn.
Dewpoint: -06° c.
Visibility: 10 Statute Miles.
Clouds: Clear (automated report).

KGUY 041353Z AUTO 14005KT 10SM CLR 00/M06 A3014 RMK AO2 SLP210 T00001061


Wind From 140°
Speed 05 kn.

 
 
jpsmedia worldairports.se 2020   terms of use